Time;durP1;ratioP1;P1;durP2;ratioP2;P2;SDS_P1;SDS_P2;PMS_P1;PMS_P2;Temp;Humidity;BMP_temperature;BMP_pressure;BME280_temperature;BME280_humidity;BME280_pressure;Samples;Min_cycle;Max_cycle;Signal;HPM_P1;HPM_P2
2023/12/13 05:06:23;;;;;;;;;82.33;64.33;;;;;;;;6474510;39;9045;-57
2023/12/13 05:12:36;;;;;;;;;84.33;66.00;;;;;;;;6493007;46;8872;-57
2023/12/13 05:18:39;;;;;;;;;84.33;65.33;;;;;;;;6492380;46;9088;-58
2023/12/13 05:24:44;;;;;;;;;76.33;63.00;;;;;;;;6493209;31;8952;-58
2023/12/13 05:30:47;;;;;;;;;76.67;61.33;;;;;;;;6492627;46;8906;-57
2023/12/13 05:36:52;;;;;;;;;74.67;62.33;;;;;;;;6491270;46;8868;-57
2023/12/13 05:42:56;;;;;;;;;83.00;64.00;;;;;;;;6492855;39;9007;-58
2023/12/13 05:49:05;;;;;;;;;66.00;54.67;;;;;;;;6492009;39;8868;-58
2023/12/13 05:55:14;;;;;;;;;82.67;68.00;;;;;;;;6493328;39;8884;-59
2023/12/13 06:01:19;;;;;;;;;87.67;67.33;;;;;;;;6491904;39;8933;-56
2023/12/13 06:07:22;;;;;;;;;91.00;68.00;;;;;;;;6491307;39;9612;-58
2023/12/13 06:13:28;;;;;;;;;75.33;59.67;;;;;;;;6490896;39;8919;-58
2023/12/13 06:19:32;;;;;;;;;79.33;63.00;;;;;;;;6491218;31;8901;-59
2023/12/13 06:25:39;;;;;;;;;85.00;65.00;;;;;;;;6489855;31;8912;-58
2023/12/13 06:31:52;;;;;;;;;83.00;64.67;;;;;;;;5765681;36;10002278;-58
2023/12/13 06:38:00;;;;;;;;;79.00;63.00;;;;;;;;6490418;46;8856;-58
2023/12/13 06:44:06;;;;;;;;;79.00;62.67;;;;;;;;6478917;47;8882;-56
2023/12/13 06:50:15;;;;;;;;;82.67;63.00;;;;;;;;6490931;31;8859;-58
2023/12/13 06:56:24;;;;;;;;;81.33;63.00;;;;;;;;6489675;31;8956;-58
2023/12/13 07:02:37;;;;;;;;;75.75;59.50;;;;;;;;6489999;31;9087;-59
2023/12/13 07:08:46;;;;;;;;;77.75;62.25;;;;;;;;6487696;47;8898;-58
2023/12/13 07:14:50;;;;;;;;;86.33;65.67;;;;;;;;6487137;39;8939;-58
2023/12/13 07:21:04;;;;;;;;;74.25;59.25;;;;;;;;6485730;39;8964;-62
2023/12/13 07:27:18;;;;;;;;;78.25;61.50;;;;;;;;6487164;39;8919;-62
2023/12/13 07:34:04;;;;;;;;;74.67;62.33;;;;;;;;6488932;39;8953;-66
2023/12/13 07:40:37;;;;;;;;;82.00;61.33;;;;;;;;6486246;39;8927;-64
2023/12/13 07:47:03;;;;;;;;;79.00;64.00;;;;;;;;6490617;31;8938;-61
2023/12/13 07:53:39;;;;;;;;;80.50;64.50;;;;;;;;6484558;31;9560;-61
2023/12/13 08:00:27;;;;;;;;;82.00;65.50;;;;;;;;6485452;31;9011;-62
2023/12/13 08:07:05;;;;;;;;;78.00;61.75;;;;;;;;6488534;31;9109;-61
2023/12/13 08:13:11;;;;;;;;;79.25;62.75;;;;;;;;6486903;39;8957;-63
2023/12/13 08:19:28;;;;;;;;;75.50;58.00;;;;;;;;6486220;39;8932;-62
2023/12/13 08:26:32;;;;;;;;;72.25;57.50;;;;;;;;6487981;39;8922;-62
2023/12/13 08:33:07;;;;;;;;;76.50;60.75;;;;;;;;6487108;39;8899;-62
2023/12/13 08:39:40;;;;;;;;;76.33;60.00;;;;;;;;6489415;46;8858;-63
2023/12/13 08:46:03;;;;;;;;;73.00;60.00;;;;;;;;6488050;39;8928;-66
2023/12/13 08:52:24;;;;;;;;;80.50;62.50;;;;;;;;6486981;39;8918;-59
2023/12/13 08:58:52;;;;;;;;;74.75;58.00;;;;;;;;6488441;31;9566;-61
2023/12/13 09:05:28;;;;;;;;;74.25;57.75;;;;;;;;6488557;39;8995;-60
2023/12/13 09:11:34;;;;;;;;;72.50;58.00;;;;;;;;6486789;39;8936;-60
2023/12/13 09:18:10;;;;;;;;;67.00;52.25;;;;;;;;6486707;46;8898;-61
2023/12/13 09:24:27;;;;;;;;;67.00;52.00;;;;;;;;6487602;39;8947;-62
2023/12/13 09:30:51;;;;;;;;;68.25;56.00;;;;;;;;6489871;39;8851;-63
2023/12/13 09:37:02;;;;;;;;;68.00;55.50;;;;;;;;6487800;31;9046;-62
2023/12/13 09:43:09;;;;;;;;;54.00;45.75;;;;;;;;6489122;46;8930;-61
2023/12/13 09:49:28;;;;;;;;;69.25;55.00;;;;;;;;6488539;39;8990;-62
2023/12/13 09:56:02;;;;;;;;;70.25;52.50;;;;;;;;6487766;39;9675;-63
2023/12/13 10:02:46;;;;;;;;;68.75;55.75;;;;;;;;6487989;39;9014;-61
2023/12/13 10:09:34;;;;;;;;;69.75;55.75;;;;;;;;6487719;39;8926;-62
2023/12/13 10:16:18;;;;;;;;;63.00;53.00;;;;;;;;6485009;39;9931;-62
2023/12/13 10:22:50;;;;;;;;;62.50;52.25;;;;;;;;6483837;39;9637;-61
2023/12/13 10:29:24;;;;;;;;;67.75;54.50;;;;;;;;6488089;39;8931;-61
2023/12/13 10:36:03;;;;;;;;;66.00;53.50;;;;;;;;6487214;47;9116;-61
2023/12/13 10:42:37;;;;;;;;;67.75;54.50;;;;;;;;6487091;31;9082;-62
2023/12/13 10:48:49;;;;;;;;;72.50;59.25;;;;;;;;6485826;47;8914;-62
2023/12/13 10:55:07;;;;;;;;;55.50;48.25;;;;;;;;6486326;31;8912;-60
2023/12/13 11:01:45;;;;;;;;;52.00;45.75;;;;;;;;6486250;31;9783;-62
2023/12/13 11:08:17;;;;;;;;;71.75;56.75;;;;;;;;6487127;39;9003;-60
2023/12/13 11:14:40;;;;;;;;;64.75;53.00;;;;;;;;6487606;31;8890;-62
2023/12/13 11:21:13;;;;;;;;;71.00;54.75;;;;;;;;6489021;39;8856;-63
2023/12/13 11:27:23;;;;;;;;;69.75;54.00;;;;;;;;6488049;46;8938;-61
2023/12/13 11:33:37;;;;;;;;;68.00;54.75;;;;;;;;6489000;39;8891;-62
2023/12/13 11:39:47;;;;;;;;;66.67;52.33;;;;;;;;6490541;39;8886;-62
2023/12/13 11:45:52;;;;;;;;;68.00;55.00;;;;;;;;6489619;39;8982;-61
2023/12/13 11:52:07;;;;;;;;;69.25;53.50;;;;;;;;6488055;31;8978;-62
2023/12/13 11:58:42;;;;;;;;;67.50;55.00;;;;;;;;6488313;39;8981;-61
2023/12/13 12:05:16;;;;;;;;;66.25;51.25;;;;;;;;6488353;39;8949;-62
2023/12/13 12:12:16;;;;;;;;;67.75;55.50;;;;;;;;6487180;31;8903;-61
2023/12/13 12:18:55;;;;;;;;;64.75;53.00;;;;;;;;6489094;39;8989;-62
2023/12/13 12:25:13;;;;;;;;;62.25;52.00;;;;;;;;6486887;46;8965;-61
2023/12/13 12:31:35;;;;;;;;;67.75;54.25;;;;;;;;6535313;36;9038;-61
2023/12/13 12:38:08;;;;;;;;;66.25;54.25;;;;;;;;6488120;39;8933;-61
2023/12/13 12:44:28;;;;;;;;;70.75;56.00;;;;;;;;6489572;31;9022;-64
2023/12/13 12:50:49;;;;;;;;;72.50;57.00;;;;;;;;6487123;39;8960;-62
2023/12/13 12:57:19;;;;;;;;;70.50;56.00;;;;;;;;6488776;39;8968;-61
2023/12/13 13:04:05;;;;;;;;;75.25;58.25;;;;;;;;6487185;46;8989;-61
2023/12/13 13:10:47;;;;;;;;;69.75;54.00;;;;;;;;6487529;39;8972;-62
2023/12/13 13:17:36;;;;;;;;;70.00;55.25;;;;;;;;6486757;39;8909;-63
2023/12/13 13:24:07;;;;;;;;;69.00;56.50;;;;;;;;6485428;31;8929;-61
2023/12/13 13:31:04;;;;;;;;;63.50;52.25;;;;;;;;6484645;39;8898;-62
2023/12/13 13:37:40;;;;;;;;;62.50;53.00;;;;;;;;6484381;46;8916;-63
2023/12/13 13:43:57;;;;;;;;;62.50;51.50;;;;;;;;6483431;39;8910;-60
2023/12/13 13:57:08;;;;;;;;;75.00;54.00;;;;;;;;6486752;46;8901;-62
2023/12/13 14:03:34;;;;;;;;;69.75;55.50;;;;;;;;6486150;46;8979;-62
2023/12/13 14:10:57;;;;;;;;;74.25;59.25;;;;;;;;6486976;46;8999;-62
2023/12/13 14:17:56;;;;;;;;;91.00;69.25;;;;;;;;6486352;39;8953;-61
2023/12/13 14:24:49;;;;;;;;;84.75;64.75;;;;;;;;6484648;39;8907;-61
2023/12/13 14:31:19;;;;;;;;;70.50;56.25;;;;;;;;6485237;39;8959;-60
2023/12/13 14:37:28;;;;;;;;;72.75;58.00;;;;;;;;6484605;39;8883;-61
2023/12/13 14:43:55;;;;;;;;;94.00;70.50;;;;;;;;6485655;31;9099;-63
2023/12/13 14:50:12;;;;;;;;;88.00;67.00;;;;;;;;6486550;39;8878;-62
2023/12/13 14:56:46;;;;;;;;;76.00;59.25;;;;;;;;6485887;39;8946;-59
2023/12/13 15:03:10;;;;;;;;;70.75;58.25;;;;;;;;6487573;39;8878;-61
2023/12/13 15:09:31;;;;;;;;;72.50;60.00;;;;;;;;6488363;31;8926;-60
2023/12/13 15:15:55;;;;;;;;;76.50;58.50;;;;;;;;6487391;31;9015;-61
2023/12/13 15:22:17;;;;;;;;;66.75;54.25;;;;;;;;6486286;31;8897;-63
2023/12/13 15:28:53;;;;;;;;;73.75;56.25;;;;;;;;6486468;47;9018;-61
2023/12/13 15:35:26;;;;;;;;;72.25;58.25;;;;;;;;6486126;39;9034;-62
2023/12/13 15:41:57;;;;;;;;;80.25;60.25;;;;;;;;6484455;47;8941;-63
2023/12/13 15:48:16;;;;;;;;;65.50;53.75;;;;;;;;6486283;47;9063;-61
2023/12/13 15:54:46;;;;;;;;;78.25;62.50;;;;;;;;6486297;39;8891;-61
2023/12/13 16:01:10;;;;;;;;;78.25;60.00;;;;;;;;6488562;39;8918;-61
2023/12/13 16:07:45;;;;;;;;;70.25;53.25;;;;;;;;6487195;39;8961;-61
2023/12/13 16:14:15;;;;;;;;;76.75;61.50;;;;;;;;6489261;39;8884;-61
2023/12/13 16:20:49;;;;;;;;;74.67;61.00;;;;;;;;6488274;39;9612;-63
2023/12/13 16:27:17;;;;;;;;;79.50;62.50;;;;;;;;6489483;39;9023;-59
2023/12/13 16:33:35;;;;;;;;;83.75;64.25;;;;;;;;6488931;39;8916;-62
2023/12/13 16:39:57;;;;;;;;;86.00;65.25;;;;;;;;6488575;31;8892;-61
2023/12/13 16:46:05;;;;;;;;;89.00;67.50;;;;;;;;6487624;39;8957;-64
2023/12/13 16:52:26;;;;;;;;;81.25;64.25;;;;;;;;6489539;39;9552;-60
2023/12/13 16:58:35;;;;;;;;;84.25;66.25;;;;;;;;6486512;39;8906;-62
2023/12/13 17:04:55;;;;;;;;;86.75;67.00;;;;;;;;6488158;46;9049;-62
2023/12/13 17:11:37;;;;;;;;;84.75;64.75;;;;;;;;6487799;39;8905;-61
2023/12/13 17:17:52;;;;;;;;;83.50;66.25;;;;;;;;6487206;39;8869;-61
2023/12/13 17:24:05;;;;;;;;;84.25;66.50;;;;;;;;6487754;39;9521;-61
2023/12/13 17:30:18;;;;;;;;;84.50;66.75;;;;;;;;6487576;31;9031;-62
2023/12/13 17:36:38;;;;;;;;;83.50;65.25;;;;;;;;6488975;39;9608;-61
2023/12/13 17:43:06;;;;;;;;;84.75;64.75;;;;;;;;6488491;39;8930;-62
2023/12/13 17:50:01;;;;;;;;;84.50;67.25;;;;;;;;6488118;31;8921;-62
2023/12/13 17:56:19;;;;;;;;;82.00;64.75;;;;;;;;6488010;39;8881;-61
2023/12/13 18:02:37;;;;;;;;;82.25;62.50;;;;;;;;6488020;39;8878;-59
2023/12/13 18:08:53;;;;;;;;;75.50;58.50;;;;;;;;6488127;46;9083;-61
2023/12/13 18:15:08;;;;;;;;;80.75;62.25;;;;;;;;6487500;39;8934;-60
2023/12/13 18:21:25;;;;;;;;;72.25;59.75;;;;;;;;6487906;39;8902;-62
2023/12/13 18:28:07;;;;;;;;;77.00;62.25;;;;;;;;6487870;39;8907;-62
2023/12/13 18:34:14;;;;;;;;;79.00;61.75;;;;;;;;6486666;39;9480;-60
2023/12/13 18:40:32;;;;;;;;;74.25;60.00;;;;;;;;6488229;39;8875;-60
2023/12/13 18:47:07;;;;;;;;;78.00;62.00;;;;;;;;6486558;39;8990;-59
2023/12/13 18:53:17;;;;;;;;;79.75;64.25;;;;;;;;6487845;39;8882;-61
2023/12/13 18:59:37;;;;;;;;;51.00;40.50;;;;;;;;5599968;36;10009373;-58
